sensor_id;sensor_type;location;lat;lon;timestamp;P1;durP1;ratioP1;P2;durP2;ratioP2
57593;SDS011;43423;46.510;6.686;2023-10-09T00:00:59;11.52;;;4.60;;
57593;SDS011;43423;46.510;6.686;2023-10-09T00:03:44;13.60;;;4.20;;
57593;SDS011;43423;46.510;6.686;2023-10-09T00:06:10;16.92;;;4.13;;
57593;SDS011;43423;46.510;6.686;2023-10-09T00:08:39;11.90;;;5.47;;
57593;SDS011;43423;46.510;6.686;2023-10-09T00:11:09;14.38;;;4.63;;
57593;SDS011;43423;46.510;6.686;2023-10-09T00:13:42;11.60;;;4.22;;
57593;SDS011;43423;46.510;6.686;2023-10-09T00:16:22;17.20;;;4.33;;
57593;SDS011;43423;46.510;6.686;2023-10-09T00:18:49;12.80;;;4.50;;
57593;SDS011;43423;46.510;6.686;2023-10-09T00:21:15;14.63;;;4.07;;
57593;SDS011;43423;46.510;6.686;2023-10-09T00:23:45;15.98;;;4.68;;
57593;SDS011;43423;46.510;6.686;2023-10-09T00:26:19;12.63;;;5.05;;
57593;SDS011;43423;46.510;6.686;2023-10-09T00:28:45;15.52;;;4.45;;
57593;SDS011;43423;46.510;6.686;2023-10-09T00:31:13;15.32;;;4.15;;
57593;SDS011;43423;46.510;6.686;2023-10-09T00:33:48;19.77;;;4.45;;
57593;SDS011;43423;46.510;6.686;2023-10-09T00:36:14;23.17;;;5.22;;
57593;SDS011;43423;46.510;6.686;2023-10-09T00:38:43;22.27;;;4.70;;
57593;SDS011;43423;46.510;6.686;2023-10-09T00:41:15;12.02;;;4.15;;
57593;SDS011;43423;46.510;6.686;2023-10-09T00:43:46;16.02;;;4.43;;
57593;SDS011;43423;46.510;6.686;2023-10-09T00:46:15;15.20;;;4.60;;
57593;SDS011;43423;46.510;6.686;2023-10-09T00:48:48;13.77;;;4.13;;
57593;SDS011;43423;46.510;6.686;2023-10-09T00:51:19;11.23;;;4.22;;
57593;SDS011;43423;46.510;6.686;2023-10-09T00:53:48;17.40;;;5.28;;
57593;SDS011;43423;46.510;6.686;2023-10-09T00:56:21;17.42;;;5.63;;
57593;SDS011;43423;46.510;6.686;2023-10-09T00:58:50;20.17;;;4.30;;
57593;SDS011;43423;46.510;6.686;2023-10-09T01:01:21;13.73;;;4.43;;
57593;SDS011;43423;46.510;6.686;2023-10-09T01:03:53;17.90;;;4.65;;
57593;SDS011;43423;46.510;6.686;2023-10-09T01:06:19;13.77;;;4.38;;
57593;SDS011;43423;46.510;6.686;2023-10-09T01:08:46;17.15;;;4.57;;
57593;SDS011;43423;46.510;6.686;2023-10-09T01:11:31;15.02;;;3.90;;
57593;SDS011;43423;46.510;6.686;2023-10-09T01:13:57;11.13;;;4.57;;
57593;SDS011;43423;46.510;6.686;2023-10-09T01:16:37;17.30;;;5.18;;
57593;SDS011;43423;46.510;6.686;2023-10-09T01:19:04;12.25;;;3.33;;
57593;SDS011;43423;46.510;6.686;2023-10-09T01:21:38;17.10;;;3.95;;
57593;SDS011;43423;46.510;6.686;2023-10-09T01:24:05;17.98;;;4.95;;
57593;SDS011;43423;46.510;6.686;2023-10-09T01:26:36;14.20;;;4.53;;
57593;SDS011;43423;46.510;6.686;2023-10-09T01:29:10;14.23;;;3.60;;
57593;SDS011;43423;46.510;6.686;2023-10-09T01:31:50;15.30;;;3.85;;
57593;SDS011;43423;46.510;6.686;2023-10-09T01:34:19;27.05;;;4.82;;
57593;SDS011;43423;46.510;6.686;2023-10-09T01:37:04;15.77;;;4.60;;
57593;SDS011;43423;46.510;6.686;2023-10-09T01:39:38;8.65;;;3.72;;
57593;SDS011;43423;46.510;6.686;2023-10-09T01:42:07;15.45;;;5.03;;
57593;SDS011;43423;46.510;6.686;2023-10-09T01:44:35;14.38;;;4.05;;
57593;SDS011;43423;46.510;6.686;2023-10-09T01:47:03;14.68;;;3.88;;
57593;SDS011;43423;46.510;6.686;2023-10-09T01:49:33;12.27;;;4.35;;
57593;SDS011;43423;46.510;6.686;2023-10-09T01:52:02;15.63;;;4.95;;
57593;SDS011;43423;46.510;6.686;2023-10-09T01:54:33;15.20;;;3.80;;
57593;SDS011;43423;46.510;6.686;2023-10-09T01:57:04;17.13;;;5.53;;
57593;SDS011;43423;46.510;6.686;2023-10-09T01:59:41;18.73;;;4.03;;
57593;SDS011;43423;46.510;6.686;2023-10-09T02:02:12;20.83;;;5.15;;
57593;SDS011;43423;46.510;6.686;2023-10-09T02:05:00;17.25;;;4.57;;
57593;SDS011;43423;46.510;6.686;2023-10-09T02:07:40;18.45;;;4.85;;
57593;SDS011;43423;46.510;6.686;2023-10-09T02:10:07;19.33;;;4.40;;
57593;SDS011;43423;46.510;6.686;2023-10-09T02:12:46;13.70;;;3.80;;
57593;SDS011;43423;46.510;6.686;2023-10-09T02:15:16;12.88;;;4.35;;
57593;SDS011;43423;46.510;6.686;2023-10-09T02:18:01;11.70;;;4.43;;
57593;SDS011;43423;46.510;6.686;2023-10-09T02:20:41;13.98;;;4.60;;
57593;SDS011;43423;46.510;6.686;2023-10-09T02:23:10;24.35;;;5.30;;
57593;SDS011;43423;46.510;6.686;2023-10-09T02:25:39;19.63;;;5.05;;
57593;SDS011;43423;46.510;6.686;2023-10-09T02:28:09;14.85;;;4.75;;
57593;SDS011;43423;46.510;6.686;2023-10-09T02:30:43;17.58;;;3.80;;
57593;SDS011;43423;46.510;6.686;2023-10-09T02:33:15;30.33;;;5.45;;
57593;SDS011;43423;46.510;6.686;2023-10-09T02:35:46;17.65;;;6.07;;
57593;SDS011;43423;46.510;6.686;2023-10-09T02:38:16;16.80;;;4.95;;
57593;SDS011;43423;46.510;6.686;2023-10-09T02:40:43;27.58;;;5.05;;
57593;SDS011;43423;46.510;6.686;2023-10-09T02:43:27;24.42;;;4.80;;
57593;SDS011;43423;46.510;6.686;2023-10-09T02:45:53;19.15;;;4.63;;
57593;SDS011;43423;46.510;6.686;2023-10-09T02:48:19;18.42;;;4.40;;
57593;SDS011;43423;46.510;6.686;2023-10-09T02:50:53;13.52;;;4.43;;
57593;SDS011;43423;46.510;6.686;2023-10-09T02:53:19;10.15;;;4.05;;
57593;SDS011;43423;46.510;6.686;2023-10-09T02:55:45;17.55;;;3.88;;
57593;SDS011;43423;46.510;6.686;2023-10-09T02:58:30;15.20;;;3.65;;
57593;SDS011;43423;46.510;6.686;2023-10-09T03:00:58;16.92;;;4.60;;
57593;SDS011;43423;46.510;6.686;2023-10-09T03:03:24;13.13;;;4.95;;
57593;SDS011;43423;46.510;6.686;2023-10-09T03:05:51;17.77;;;5.32;;
57593;SDS011;43423;46.510;6.686;2023-10-09T03:08:17;14.38;;;4.75;;
57593;SDS011;43423;46.510;6.686;2023-10-09T03:10:44;19.23;;;4.60;;
57593;SDS011;43423;46.510;6.686;2023-10-09T03:13:10;17.92;;;4.00;;
57593;SDS011;43423;46.510;6.686;2023-10-09T03:15:38;14.50;;;4.35;;
57593;SDS011;43423;46.510;6.686;2023-10-09T03:18:04;13.52;;;4.75;;
57593;SDS011;43423;46.510;6.686;2023-10-09T03:20:32;16.13;;;4.70;;
57593;SDS011;43423;46.510;6.686;2023-10-09T03:22:58;15.98;;;3.65;;
57593;SDS011;43423;46.510;6.686;2023-10-09T03:25:26;18.65;;;5.53;;
57593;SDS011;43423;46.510;6.686;2023-10-09T03:27:53;21.38;;;4.30;;
57593;SDS011;43423;46.510;6.686;2023-10-09T03:30:21;12.98;;;3.92;;
57593;SDS011;43423;46.510;6.686;2023-10-09T03:32:50;20.88;;;4.47;;
57593;SDS011;43423;46.510;6.686;2023-10-09T03:35:20;12.95;;;4.55;;
57593;SDS011;43423;46.510;6.686;2023-10-09T03:37:53;15.90;;;4.95;;
57593;SDS011;43423;46.510;6.686;2023-10-09T03:40:27;13.68;;;4.18;;
57593;SDS011;43423;46.510;6.686;2023-10-09T03:42:53;13.27;;;4.85;;
57593;SDS011;43423;46.510;6.686;2023-10-09T03:45:22;13.93;;;3.65;;
57593;SDS011;43423;46.510;6.686;2023-10-09T03:47:52;13.73;;;3.63;;
57593;SDS011;43423;46.510;6.686;2023-10-09T03:50:23;12.20;;;4.72;;
57593;SDS011;43423;46.510;6.686;2023-10-09T03:52:51;12.98;;;3.70;;
57593;SDS011;43423;46.510;6.686;2023-10-09T03:55:18;10.98;;;3.78;;
57593;SDS011;43423;46.510;6.686;2023-10-09T03:57:44;12.73;;;3.47;;
57593;SDS011;43423;46.510;6.686;2023-10-09T04:00:11;17.98;;;4.88;;
57593;SDS011;43423;46.510;6.686;2023-10-09T04:02:53;13.40;;;2.97;;
57593;SDS011;43423;46.510;6.686;2023-10-09T04:05:19;13.43;;;3.38;;
57593;SDS011;43423;46.510;6.686;2023-10-09T04:07:45;9.98;;;3.00;;
57593;SDS011;43423;46.510;6.686;2023-10-09T04:10:11;9.30;;;3.38;;
57593;SDS011;43423;46.510;6.686;2023-10-09T04:13:05;10.57;;;4.05;;
57593;SDS011;43423;46.510;6.686;2023-10-09T04:15:36;13.70;;;3.28;;
57593;SDS011;43423;46.510;6.686;2023-10-09T04:18:01;17.20;;;3.97;;
57593;SDS011;43423;46.510;6.686;2023-10-09T04:20:28;10.30;;;3.05;;
57593;SDS011;43423;46.510;6.686;2023-10-09T04:22:54;12.40;;;3.67;;
57593;SDS011;43423;46.510;6.686;2023-10-09T04:25:30;13.63;;;3.53;;
57593;SDS011;43423;46.510;6.686;2023-10-09T04:28:06;17.77;;;3.70;;
57593;SDS011;43423;46.510;6.686;2023-10-09T04:30:47;19.83;;;4.03;;
57593;SDS011;43423;46.510;6.686;2023-10-09T04:35:54;13.13;;;4.00;;
57593;SDS011;43423;46.510;6.686;2023-10-09T04:38:46;10.43;;;3.50;;
57593;SDS011;43423;46.510;6.686;2023-10-09T04:41:42;14.65;;;6.10;;
57593;SDS011;43423;46.510;6.686;2023-10-09T04:44:08;13.40;;;3.88;;
57593;SDS011;43423;46.510;6.686;2023-10-09T04:46:43;15.25;;;3.65;;
57593;SDS011;43423;46.510;6.686;2023-10-09T04:49:09;13.32;;;3.70;;
57593;SDS011;43423;46.510;6.686;2023-10-09T04:51:54;12.68;;;4.07;;
57593;SDS011;43423;46.510;6.686;2023-10-09T04:54:43;13.48;;;2.88;;
57593;SDS011;43423;46.510;6.686;2023-10-09T04:57:29;9.77;;;4.15;;
57593;SDS011;43423;46.510;6.686;2023-10-09T04:59:54;13.63;;;3.63;;
57593;SDS011;43423;46.510;6.686;2023-10-09T05:02:24;15.43;;;4.28;;
57593;SDS011;43423;46.510;6.686;2023-10-09T05:04:49;15.07;;;4.63;;
57593;SDS011;43423;46.510;6.686;2023-10-09T05:07:35;11.60;;;3.35;;
57593;SDS011;43423;46.510;6.686;2023-10-09T05:10:23;23.65;;;4.53;;
57593;SDS011;43423;46.510;6.686;2023-10-09T05:12:51;12.25;;;3.90;;
57593;SDS011;43423;46.510;6.686;2023-10-09T05:15:25;11.73;;;4.25;;
57593;SDS011;43423;46.510;6.686;2023-10-09T05:17:59;16.90;;;3.95;;
57593;SDS011;43423;46.510;6.686;2023-10-09T05:20:34;15.77;;;5.57;;
57593;SDS011;43423;46.510;6.686;2023-10-09T05:23:19;16.25;;;4.80;;
57593;SDS011;43423;46.510;6.686;2023-10-09T05:25:51;15.18;;;4.50;;
57593;SDS011;43423;46.510;6.686;2023-10-09T05:28:21;21.70;;;4.88;;
57593;SDS011;43423;46.510;6.686;2023-10-09T05:30:59;12.05;;;4.43;;
57593;SDS011;43423;46.510;6.686;2023-10-09T05:33:36;13.13;;;3.97;;
57593;SDS011;43423;46.510;6.686;2023-10-09T05:36:03;13.88;;;4.47;;
57593;SDS011;43423;46.510;6.686;2023-10-09T05:38:48;10.38;;;4.13;;
57593;SDS011;43423;46.510;6.686;2023-10-09T05:41:24;9.77;;;4.57;;
57593;SDS011;43423;46.510;6.686;2023-10-09T05:44:11;15.00;;;5.28;;
57593;SDS011;43423;46.510;6.686;2023-10-09T05:46:54;12.55;;;4.40;;
57593;SDS011;43423;46.510;6.686;2023-10-09T05:49:38;13.23;;;4.25;;
57593;SDS011;43423;46.510;6.686;2023-10-09T05:52:22;20.42;;;4.88;;
57593;SDS011;43423;46.510;6.686;2023-10-09T05:55:03;15.52;;;4.22;;
57593;SDS011;43423;46.510;6.686;2023-10-09T05:57:53;16.60;;;4.65;;
57593;SDS011;43423;46.510;6.686;2023-10-09T06:00:34;19.40;;;4.20;;
57593;SDS011;43423;46.510;6.686;2023-10-09T06:03:19;14.02;;;4.75;;
57593;SDS011;43423;46.510;6.686;2023-10-09T06:05:45;15.02;;;4.30;;
57593;SDS011;43423;46.510;6.686;2023-10-09T06:08:21;26.48;;;5.13;;
57593;SDS011;43423;46.510;6.686;2023-10-09T06:11:14;13.98;;;4.97;;
57593;SDS011;43423;46.510;6.686;2023-10-09T06:13:58;18.60;;;4.93;;
57593;SDS011;43423;46.510;6.686;2023-10-09T06:16:38;15.00;;;5.25;;
57593;SDS011;43423;46.510;6.686;2023-10-09T06:19:12;12.95;;;4.68;;
57593;SDS011;43423;46.510;6.686;2023-10-09T06:21:52;14.00;;;6.53;;
57593;SDS011;43423;46.510;6.686;2023-10-09T06:24:47;17.55;;;5.20;;
57593;SDS011;43423;46.510;6.686;2023-10-09T06:27:18;15.23;;;6.18;;
57593;SDS011;43423;46.510;6.686;2023-10-09T06:29:57;18.90;;;6.13;;
57593;SDS011;43423;46.510;6.686;2023-10-09T06:32:41;24.77;;;6.30;;
57593;SDS011;43423;46.510;6.686;2023-10-09T06:35:22;22.92;;;4.72;;
57593;SDS011;43423;46.510;6.686;2023-10-09T06:37:55;16.60;;;5.10;;
57593;SDS011;43423;46.510;6.686;2023-10-09T06:43:13;17.20;;;5.95;;
57593;SDS011;43423;46.510;6.686;2023-10-09T06:45:48;19.25;;;5.75;;
57593;SDS011;43423;46.510;6.686;2023-10-09T06:48:27;18.30;;;4.50;;
57593;SDS011;43423;46.510;6.686;2023-10-09T06:51:05;19.98;;;5.50;;
57593;SDS011;43423;46.510;6.686;2023-10-09T06:53:41;23.85;;;5.63;;
57593;SDS011;43423;46.510;6.686;2023-10-09T06:56:28;22.15;;;5.63;;
57593;SDS011;43423;46.510;6.686;2023-10-09T06:59:03;21.50;;;6.50;;
57593;SDS011;43423;46.510;6.686;2023-10-09T07:01:47;24.23;;;6.25;;
57593;SDS011;43423;46.510;6.686;2023-10-09T07:04:33;23.15;;;6.32;;
57593;SDS011;43423;46.510;6.686;2023-10-09T07:07:02;16.25;;;5.95;;
57593;SDS011;43423;46.510;6.686;2023-10-09T07:09:35;22.45;;;5.95;;
57593;SDS011;43423;46.510;6.686;2023-10-09T07:12:29;27.38;;;7.65;;
57593;SDS011;43423;46.510;6.686;2023-10-09T07:14:59;28.73;;;6.55;;
57593;SDS011;43423;46.510;6.686;2023-10-09T07:17:49;31.05;;;7.13;;
57593;SDS011;43423;46.510;6.686;2023-10-09T07:20:18;24.85;;;6.68;;
57593;SDS011;43423;46.510;6.686;2023-10-09T07:23:02;29.55;;;6.82;;
57593;SDS011;43423;46.510;6.686;2023-10-09T07:25:41;24.38;;;6.50;;
57593;SDS011;43423;46.510;6.686;2023-10-09T07:28:08;27.15;;;6.95;;
57593;SDS011;43423;46.510;6.686;2023-10-09T07:30:54;39.78;;;7.30;;
57593;SDS011;43423;46.510;6.686;2023-10-09T07:33:22;30.10;;;7.82;;
57593;SDS011;43423;46.510;6.686;2023-10-09T07:35:57;24.98;;;7.57;;
57593;SDS011;43423;46.510;6.686;2023-10-09T07:38:31;23.10;;;7.38;;
57593;SDS011;43423;46.510;6.686;2023-10-09T07:41:03;26.75;;;8.57;;
57593;SDS011;43423;46.510;6.686;2023-10-09T07:43:32;25.77;;;7.47;;
57593;SDS011;43423;46.510;6.686;2023-10-09T07:46:08;34.35;;;8.77;;
57593;SDS011;43423;46.510;6.686;2023-10-09T07:48:53;32.95;;;7.95;;
57593;SDS011;43423;46.510;6.686;2023-10-09T07:51:20;24.92;;;8.25;;
57593;SDS011;43423;46.510;6.686;2023-10-09T07:53:55;31.40;;;8.30;;
57593;SDS011;43423;46.510;6.686;2023-10-09T07:56:38;38.17;;;10.13;;
57593;SDS011;43423;46.510;6.686;2023-10-09T07:59:09;24.38;;;8.85;;
57593;SDS011;43423;46.510;6.686;2023-10-09T08:01:41;33.22;;;9.00;;
57593;SDS011;43423;46.510;6.686;2023-10-09T08:04:24;28.50;;;9.73;;
57593;SDS011;43423;46.510;6.686;2023-10-09T08:07:05;22.63;;;7.55;;
57593;SDS011;43423;46.510;6.686;2023-10-09T08:09:35;30.00;;;8.07;;
57593;SDS011;43423;46.510;6.686;2023-10-09T08:12:14;23.48;;;7.72;;
57593;SDS011;43423;46.510;6.686;2023-10-09T08:15:03;29.50;;;8.30;;
57593;SDS011;43423;46.510;6.686;2023-10-09T08:17:45;24.58;;;8.77;;
57593;SDS011;43423;46.510;6.686;2023-10-09T08:20:23;23.02;;;7.90;;
57593;SDS011;43423;46.510;6.686;2023-10-09T08:22:53;24.77;;;7.68;;
57593;SDS011;43423;46.510;6.686;2023-10-09T08:25:23;24.63;;;8.13;;
57593;SDS011;43423;46.510;6.686;2023-10-09T08:27:58;31.25;;;8.43;;
57593;SDS011;43423;46.510;6.686;2023-10-09T08:30:45;25.15;;;8.05;;
57593;SDS011;43423;46.510;6.686;2023-10-09T08:33:14;21.17;;;8.30;;
57593;SDS011;43423;46.510;6.686;2023-10-09T08:35:55;24.58;;;7.55;;
57593;SDS011;43423;46.510;6.686;2023-10-09T08:38:27;31.58;;;8.52;;
57593;SDS011;43423;46.510;6.686;2023-10-09T08:41:05;29.25;;;8.00;;
57593;SDS011;43423;46.510;6.686;2023-10-09T08:43:42;20.02;;;8.00;;
57593;SDS011;43423;46.510;6.686;2023-10-09T08:46:14;26.30;;;7.93;;
57593;SDS011;43423;46.510;6.686;2023-10-09T08:48:44;25.25;;;7.40;;
57593;SDS011;43423;46.510;6.686;2023-10-09T08:51:10;31.30;;;8.35;;
57593;SDS011;43423;46.510;6.686;2023-10-09T08:53:36;24.58;;;8.82;;
57593;SDS011;43423;46.510;6.686;2023-10-09T08:56:15;27.60;;;7.38;;
57593;SDS011;43423;46.510;6.686;2023-10-09T08:58:57;22.55;;;8.10;;
57593;SDS011;43423;46.510;6.686;2023-10-09T09:01:23;20.50;;;6.82;;
57593;SDS011;43423;46.510;6.686;2023-10-09T09:03:50;35.00;;;8.65;;
57593;SDS011;43423;46.510;6.686;2023-10-09T09:06:20;26.52;;;7.45;;
57593;SDS011;43423;46.510;6.686;2023-10-09T09:08:46;24.25;;;6.93;;
57593;SDS011;43423;46.510;6.686;2023-10-09T09:11:13;24.40;;;8.20;;
57593;SDS011;43423;46.510;6.686;2023-10-09T09:16:24;20.98;;;7.93;;
57593;SDS011;43423;46.510;6.686;2023-10-09T09:19:03;31.75;;;7.60;;
57593;SDS011;43423;46.510;6.686;2023-10-09T09:21:42;25.35;;;6.70;;
57593;SDS011;43423;46.510;6.686;2023-10-09T09:24:13;29.75;;;8.27;;
57593;SDS011;43423;46.510;6.686;2023-10-09T09:27:01;21.50;;;7.60;;
57593;SDS011;43423;46.510;6.686;2023-10-09T09:29:57;20.83;;;7.03;;
57593;SDS011;43423;46.510;6.686;2023-10-09T09:32:30;25.77;;;7.10;;
57593;SDS011;43423;46.510;6.686;2023-10-09T09:35:03;25.13;;;7.43;;
57593;SDS011;43423;46.510;6.686;2023-10-09T09:37:32;21.65;;;6.30;;
57593;SDS011;43423;46.510;6.686;2023-10-09T09:40:07;21.23;;;7.50;;
57593;SDS011;43423;46.510;6.686;2023-10-09T09:42:52;23.23;;;7.47;;
57593;SDS011;43423;46.510;6.686;2023-10-09T09:45:22;30.60;;;6.72;;
57593;SDS011;43423;46.510;6.686;2023-10-09T09:47:49;17.38;;;6.05;;
57593;SDS011;43423;46.510;6.686;2023-10-09T09:50:19;18.48;;;6.32;;
57593;SDS011;43423;46.510;6.686;2023-10-09T09:52:51;18.63;;;6.35;;
57593;SDS011;43423;46.510;6.686;2023-10-09T09:55:24;22.93;;;6.90;;
57593;SDS011;43423;46.510;6.686;2023-10-09T09:57:56;26.35;;;8.07;;
57593;SDS011;43423;46.510;6.686;2023-10-09T10:00:25;21.23;;;6.45;;
57593;SDS011;43423;46.510;6.686;2023-10-09T10:03:09;25.15;;;7.75;;
57593;SDS011;43423;46.510;6.686;2023-10-09T10:05:38;22.23;;;6.75;;
57593;SDS011;43423;46.510;6.686;2023-10-09T10:08:07;31.00;;;9.40;;
57593;SDS011;43423;46.510;6.686;2023-10-09T10:10:39;23.45;;;6.70;;
57593;SDS011;43423;46.510;6.686;2023-10-09T10:16:12;21.88;;;5.30;;
57593;SDS011;43423;46.510;6.686;2023-10-09T10:18:53;21.15;;;5.70;;
57593;SDS011;43423;46.510;6.686;2023-10-09T10:21:32;18.77;;;5.55;;
57593;SDS011;43423;46.510;6.686;2023-10-09T10:24:06;30.90;;;7.30;;
57593;SDS011;43423;46.510;6.686;2023-10-09T10:35:17;23.15;;;6.55;;
57593;SDS011;43423;46.510;6.686;2023-10-09T10:37:46;19.45;;;6.03;;
57593;SDS011;43423;46.510;6.686;2023-10-09T10:40:27;19.45;;;6.47;;
57593;SDS011;43423;46.510;6.686;2023-10-09T10:43:14;24.73;;;5.88;;
57593;SDS011;43423;46.510;6.686;2023-10-09T10:46:03;22.92;;;6.57;;
57593;SDS011;43423;46.510;6.686;2023-10-09T10:48:36;15.77;;;5.40;;
57593;SDS011;43423;46.510;6.686;2023-10-09T10:51:05;31.02;;;7.18;;
57593;SDS011;43423;46.510;6.686;2023-10-09T10:53:31;19.88;;;6.18;;
57593;SDS011;43423;46.510;6.686;2023-10-09T10:56:18;21.35;;;5.45;;
57593;SDS011;43423;46.510;6.686;2023-10-09T10:58:54;26.08;;;6.07;;
57593;SDS011;43423;46.510;6.686;2023-10-09T11:01:32;29.85;;;7.53;;
57593;SDS011;43423;46.510;6.686;2023-10-09T11:04:17;20.20;;;5.20;;
57593;SDS011;43423;46.510;6.686;2023-10-09T11:07:04;24.10;;;5.53;;
57593;SDS011;43423;46.510;6.686;2023-10-09T11:09:42;17.80;;;5.32;;
57593;SDS011;43423;46.510;6.686;2023-10-09T11:15:29;21.00;;;5.53;;
57593;SDS011;43423;46.510;6.686;2023-10-09T11:18:09;21.73;;;5.30;;
57593;SDS011;43423;46.510;6.686;2023-10-09T11:20:50;16.10;;;7.10;;
57593;SDS011;43423;46.510;6.686;2023-10-09T11:23:40;22.08;;;5.43;;
57593;SDS011;43423;46.510;6.686;2023-10-09T11:26:18;26.17;;;5.10;;
57593;SDS011;43423;46.510;6.686;2023-10-09T11:29:06;15.55;;;4.50;;
57593;SDS011;43423;46.510;6.686;2023-10-09T11:32:03;21.40;;;4.45;;
57593;SDS011;43423;46.510;6.686;2023-10-09T11:34:30;20.60;;;4.70;;
57593;SDS011;43423;46.510;6.686;2023-10-09T11:39:37;19.40;;;4.80;;
57593;SDS011;43423;46.510;6.686;2023-10-09T11:42:18;17.77;;;5.05;;
57593;SDS011;43423;46.510;6.686;2023-10-09T11:45:06;24.67;;;5.68;;
57593;SDS011;43423;46.510;6.686;2023-10-09T11:47:50;17.85;;;4.78;;
57593;SDS011;43423;46.510;6.686;2023-10-09T11:50:42;13.48;;;4.47;;
57593;SDS011;43423;46.510;6.686;2023-10-09T11:53:14;21.88;;;5.40;;
57593;SDS011;43423;46.510;6.686;2023-10-09T11:55:45;17.73;;;5.20;;
57593;SDS011;43423;46.510;6.686;2023-10-09T11:58:18;15.10;;;4.63;;
57593;SDS011;43423;46.510;6.686;2023-10-09T12:00:50;16.88;;;5.18;;
57593;SDS011;43423;46.510;6.686;2023-10-09T12:03:17;21.35;;;5.40;;
57593;SDS011;43423;46.510;6.686;2023-10-09T12:05:47;17.67;;;4.47;;
57593;SDS011;43423;46.510;6.686;2023-10-09T12:08:13;14.50;;;4.50;;
57593;SDS011;43423;46.510;6.686;2023-10-09T12:10:41;13.32;;;4.15;;
57593;SDS011;43423;46.510;6.686;2023-10-09T12:13:07;21.48;;;4.90;;
57593;SDS011;43423;46.510;6.686;2023-10-09T12:15:33;22.85;;;5.15;;
57593;SDS011;43423;46.510;6.686;2023-10-09T12:18:04;13.30;;;4.22;;
57593;SDS011;43423;46.510;6.686;2023-10-09T12:20:32;21.92;;;4.85;;
57593;SDS011;43423;46.510;6.686;2023-10-09T12:22:58;17.85;;;3.92;;
57593;SDS011;43423;46.510;6.686;2023-10-09T12:25:25;13.40;;;4.15;;
57593;SDS011;43423;46.510;6.686;2023-10-09T12:27:51;19.55;;;4.70;;
57593;SDS011;43423;46.510;6.686;2023-10-09T12:30:22;11.07;;;5.03;;
57593;SDS011;43423;46.510;6.686;2023-10-09T12:32:58;14.70;;;4.53;;
57593;SDS011;43423;46.510;6.686;2023-10-09T12:35:24;18.88;;;4.85;;
57593;SDS011;43423;46.510;6.686;2023-10-09T12:37:51;16.60;;;4.70;;
57593;SDS011;43423;46.510;6.686;2023-10-09T12:40:20;17.85;;;4.90;;
57593;SDS011;43423;46.510;6.686;2023-10-09T12:42:54;18.35;;;4.22;;
57593;SDS011;43423;46.510;6.686;2023-10-09T12:45:24;20.55;;;4.38;;
57593;SDS011;43423;46.510;6.686;2023-10-09T12:47:57;13.35;;;4.50;;
57593;SDS011;43423;46.510;6.686;2023-10-09T12:50:27;19.90;;;4.90;;
57593;SDS011;43423;46.510;6.686;2023-10-09T12:52:57;21.63;;;4.93;;
57593;SDS011;43423;46.510;6.686;2023-10-09T12:55:27;22.17;;;5.53;;
57593;SDS011;43423;46.510;6.686;2023-10-09T12:58:01;16.23;;;4.55;;
57593;SDS011;43423;46.510;6.686;2023-10-09T13:00:36;14.43;;;4.18;;
57593;SDS011;43423;46.510;6.686;2023-10-09T13:05:39;14.30;;;4.05;;
57593;SDS011;43423;46.510;6.686;2023-10-09T13:08:24;10.80;;;3.90;;
57593;SDS011;43423;46.510;6.686;2023-10-09T13:11:03;18.48;;;4.40;;
57593;SDS011;43423;46.510;6.686;2023-10-09T13:13:36;15.73;;;3.75;;
57593;SDS011;43423;46.510;6.686;2023-10-09T13:16:08;17.23;;;4.57;;
57593;SDS011;43423;46.510;6.686;2023-10-09T13:18:53;16.08;;;4.13;;
57593;SDS011;43423;46.510;6.686;2023-10-09T13:21:20;19.42;;;4.55;;
57593;SDS011;43423;46.510;6.686;2023-10-09T13:23:48;10.68;;;3.72;;
57593;SDS011;43423;46.510;6.686;2023-10-09T13:26:16;13.13;;;4.10;;
57593;SDS011;43423;46.510;6.686;2023-10-09T13:28:46;14.38;;;3.63;;
57593;SDS011;43423;46.510;6.686;2023-10-09T13:31:17;18.67;;;4.47;;
57593;SDS011;43423;46.510;6.686;2023-10-09T13:33:44;19.15;;;4.45;;
57593;SDS011;43423;46.510;6.686;2023-10-09T13:36:10;13.05;;;4.90;;
57593;SDS011;43423;46.510;6.686;2023-10-09T13:38:47;16.10;;;3.58;;
57593;SDS011;43423;46.510;6.686;2023-10-09T13:41:13;11.73;;;4.20;;
57593;SDS011;43423;46.510;6.686;2023-10-09T13:43:39;17.15;;;3.60;;
57593;SDS011;43423;46.510;6.686;2023-10-09T13:46:12;14.60;;;4.20;;
57593;SDS011;43423;46.510;6.686;2023-10-09T13:48:41;15.60;;;4.30;;
57593;SDS011;43423;46.510;6.686;2023-10-09T13:51:10;20.83;;;3.83;;
57593;SDS011;43423;46.510;6.686;2023-10-09T13:53:43;14.05;;;4.75;;
57593;SDS011;43423;46.510;6.686;2023-10-09T13:56:15;13.27;;;4.13;;
57593;SDS011;43423;46.510;6.686;2023-10-09T13:58:45;17.05;;;4.13;;
57593;SDS011;43423;46.510;6.686;2023-10-09T14:01:11;14.45;;;3.55;;
57593;SDS011;43423;46.510;6.686;2023-10-09T14:03:46;8.82;;;3.30;;
57593;SDS011;43423;46.510;6.686;2023-10-09T14:06:15;17.40;;;3.85;;
57593;SDS011;43423;46.510;6.686;2023-10-09T14:08:45;18.83;;;3.63;;
57593;SDS011;43423;46.510;6.686;2023-10-09T14:11:11;10.63;;;4.13;;
57593;SDS011;43423;46.510;6.686;2023-10-09T14:13:40;16.90;;;3.72;;
57593;SDS011;43423;46.510;6.686;2023-10-09T14:16:05;12.38;;;3.92;;
57593;SDS011;43423;46.510;6.686;2023-10-09T14:18:32;15.43;;;4.05;;
57593;SDS011;43423;46.510;6.686;2023-10-09T14:21:01;12.10;;;4.05;;
57593;SDS011;43423;46.510;6.686;2023-10-09T14:23:33;17.02;;;3.55;;
57593;SDS011;43423;46.510;6.686;2023-10-09T14:28:31;17.80;;;3.33;;
57593;SDS011;43423;46.510;6.686;2023-10-09T14:30:56;15.27;;;3.47;;
57593;SDS011;43423;46.510;6.686;2023-10-09T14:33:26;11.20;;;2.97;;
57593;SDS011;43423;46.510;6.686;2023-10-09T14:35:54;12.65;;;3.72;;
57593;SDS011;43423;46.510;6.686;2023-10-09T14:38:20;16.38;;;3.88;;
57593;SDS011;43423;46.510;6.686;2023-10-09T14:40:52;11.50;;;3.42;;
57593;SDS011;43423;46.510;6.686;2023-10-09T14:43:23;18.83;;;4.32;;
57593;SDS011;43423;46.510;6.686;2023-10-09T14:45:53;24.27;;;3.70;;
57593;SDS011;43423;46.510;6.686;2023-10-09T14:48:19;13.63;;;3.58;;
57593;SDS011;43423;46.510;6.686;2023-10-09T14:50:51;11.82;;;3.72;;
57593;SDS011;43423;46.510;6.686;2023-10-09T14:53:20;18.00;;;4.43;;
57593;SDS011;43423;46.510;6.686;2023-10-09T14:55:53;11.43;;;3.40;;
57593;SDS011;43423;46.510;6.686;2023-10-09T14:58:19;11.98;;;3.53;;
57593;SDS011;43423;46.510;6.686;2023-10-09T15:00:45;12.55;;;3.13;;
57593;SDS011;43423;46.510;6.686;2023-10-09T15:03:13;9.90;;;2.95;;
57593;SDS011;43423;46.510;6.686;2023-10-09T15:05:42;14.13;;;3.75;;
57593;SDS011;43423;46.510;6.686;2023-10-09T15:08:08;7.75;;;2.80;;
57593;SDS011;43423;46.510;6.686;2023-10-09T15:10:48;18.13;;;4.20;;
57593;SDS011;43423;46.510;6.686;2023-10-09T15:13:21;13.63;;;4.30;;
57593;SDS011;43423;46.510;6.686;2023-10-09T15:15:53;10.65;;;3.20;;
57593;SDS011;43423;46.510;6.686;2023-10-09T15:18:19;17.75;;;3.72;;
57593;SDS011;43423;46.510;6.686;2023-10-09T15:20:49;12.20;;;3.17;;
57593;SDS011;43423;46.510;6.686;2023-10-09T15:23:14;10.98;;;3.08;;
57593;SDS011;43423;46.510;6.686;2023-10-09T15:25:40;15.75;;;3.78;;
57593;SDS011;43423;46.510;6.686;2023-10-09T15:28:10;17.88;;;3.75;;
57593;SDS011;43423;46.510;6.686;2023-10-09T15:30:37;14.45;;;3.83;;
57593;SDS011;43423;46.510;6.686;2023-10-09T15:33:08;14.82;;;3.45;;
57593;SDS011;43423;46.510;6.686;2023-10-09T15:35:36;12.57;;;3.97;;
57593;SDS011;43423;46.510;6.686;2023-10-09T15:38:02;9.50;;;3.67;;
57593;SDS011;43423;46.510;6.686;2023-10-09T15:40:32;15.43;;;3.90;;
57593;SDS011;43423;46.510;6.686;2023-10-09T15:43:02;16.00;;;4.30;;